Time;durP1;ratioP1;P1;durP2;ratioP2;P2;SDS_P1;SDS_P2;PMS_P1;PMS_P2;Temp;Humidity;BMP_temperature;BMP_pressure;BME280_temperature;BME280_humidity;BME280_pressure;Samples;Min_cycle;Max_cycle;Signal;HPM_P1;HPM_P2
2023/05/04 00:00:20;;;;;;;9.07;5.22;;;12.30;60.00;;;15.20;42.25;98095.03;5032443;28;20045;-44
2023/05/04 00:02:47;;;;;;;7.13;5.18;;;12.30;60.00;;;15.14;42.32;98088.53;5032288;28;20053;-44
2023/05/04 00:05:15;;;;;;;8.55;5.43;;;12.20;60.00;;;15.13;42.41;98086.03;5032066;28;20052;-43
2023/05/04 00:07:43;;;;;;;15.02;6.63;;;12.20;60.20;;;15.12;42.74;98085.22;5031484;28;20041;-45
2023/05/04 00:10:10;;;;;;;6.32;4.88;;;12.20;60.40;;;15.10;42.41;98078.34;5030954;28;20412;-45
2023/05/04 00:12:38;;;;;;;7.32;5.95;;;12.10;60.30;;;15.07;42.63;98073.34;5030855;28;20049;-44
2023/05/04 00:15:06;;;;;;;7.57;6.07;;;12.10;60.60;;;15.04;42.60;98076.38;5032001;28;20037;-45
2023/05/04 00:17:34;;;;;;;10.57;5.30;;;12.00;60.60;;;15.01;42.45;98066.03;5031260;28;20049;-44
2023/05/04 00:20:03;;;;;;;7.65;5.97;;;12.00;60.40;;;14.99;42.55;98065.38;5023979;28;20052;-46
2023/05/04 00:22:31;;;;;;;6.05;4.68;;;12.00;60.60;;;14.94;42.82;98077.44;5030875;28;20399;-44
2023/05/04 00:24:58;;;;;;;7.75;4.88;;;11.90;61.00;;;14.91;42.67;98066.28;5031593;28;20496;-44
2023/05/04 00:27:26;;;;;;;8.40;4.72;;;12.00;60.80;;;14.90;42.76;98070.78;5031586;28;20086;-44
2023/05/04 00:29:53;;;;;;;6.83;5.27;;;12.00;60.80;;;14.90;42.71;98073.44;5030219;28;20049;-43
2023/05/04 00:32:21;;;;;;;7.53;5.20;;;12.00;60.80;;;14.90;42.68;98064.59;5031695;28;20037;-43
2023/05/04 00:34:48;;;;;;;7.90;5.17;;;11.90;60.90;;;14.86;42.63;98061.44;5030406;28;20424;-45
2023/05/04 00:37:16;;;;;;;7.35;5.40;;;11.90;61.00;;;14.84;42.75;98060.78;5030321;28;20409;-44
2023/05/04 00:39:44;;;;;;;6.10;4.55;;;11.90;61.10;;;14.82;42.75;98057.44;5029911;28;20049;-44
2023/05/04 00:42:11;;;;;;;6.83;4.97;;;11.90;61.20;;;14.80;42.98;98054.09;5030832;28;20449;-43
2023/05/04 00:44:43;;;;;;;7.33;4.37;;;11.80;61.20;;;14.79;42.82;98048.91;5029596;28;20072;-44
2023/05/04 00:47:12;;;;;;;8.00;4.23;;;11.90;61.20;;;14.78;42.81;98053.44;5029719;28;20501;-44
2023/05/04 00:49:40;;;;;;;5.90;4.57;;;11.80;60.90;;;14.75;42.84;98051.97;5031363;28;20064;-44
2023/05/04 00:52:09;;;;;;;6.27;4.80;;;11.80;60.80;;;14.75;42.94;98054.66;5030276;28;20036;-44
2023/05/04 00:54:37;;;;;;;7.73;5.77;;;11.80;60.80;;;14.76;42.80;98055.47;5029782;28;20045;-44
2023/05/04 00:57:05;;;;;;;6.97;4.97;;;11.80;61.00;;;14.74;42.91;98049.47;5022339;28;20045;-46
2023/05/04 00:59:33;;;;;;;7.10;4.90;;;11.80;61.00;;;14.72;42.71;98046.13;5029567;28;20053;-44
2023/05/04 01:02:00;;;;;;;7.27;4.60;;;11.80;60.80;;;14.70;42.98;98048.16;5031074;28;20045;-44
2023/05/04 01:04:28;;;;;;;6.13;4.60;;;11.70;61.00;;;14.68;42.88;98048.31;5029849;28;20045;-43
2023/05/04 01:07:25;;;;;;;8.73;4.83;;;11.80;60.80;;;14.66;42.99;98046.84;5029611;28;20056;-43
2023/05/04 01:10:11;;;;;;;6.43;4.40;;;11.80;61.40;;;14.67;42.68;98048.50;5031049;28;20053;-44
2023/05/04 01:12:46;;;;;;;8.90;4.97;;;11.70;60.90;;;14.63;43.00;98050.69;4997446;28;20056;-45
2023/05/04 01:15:14;;;;;;;7.17;5.17;;;11.70;61.30;;;14.61;43.00;98044.66;5022944;28;20505;-45
2023/05/04 01:17:42;;;;;;;7.23;4.47;;;11.70;61.20;;;14.61;43.04;98052.72;5030276;28;20489;-44
2023/05/04 01:20:10;;;;;;;8.10;5.10;;;11.70;61.10;;;14.62;43.04;98051.72;5029553;28;20068;-44
2023/05/04 01:22:38;;;;;;;6.67;5.03;;;11.70;61.00;;;14.64;42.98;98048.88;5029644;28;20049;-43
2023/05/04 01:25:06;;;;;;;5.33;4.40;;;11.70;60.80;;;14.60;43.12;98045.69;5030766;28;20049;-45
2023/05/04 01:27:58;;;;;;;8.13;5.32;;;11.70;61.10;;;14.61;42.97;98050.03;5029057;28;20060;-45
2023/05/04 01:30:36;;;;;;;6.50;4.77;;;11.70;61.70;;;14.61;42.88;98039.31;5024152;28;20052;-45
2023/05/04 01:33:05;;;;;;;8.33;5.03;;;11.70;61.20;;;14.58;43.04;98042.38;5029514;28;20046;-44
2023/05/04 01:35:33;;;;;;;6.57;4.73;;;11.70;61.10;;;14.59;43.10;98048.53;5029325;28;20437;-43
2023/05/04 01:38:01;;;;;;;7.33;4.43;;;11.70;61.00;;;14.56;43.12;98039.00;5029483;28;20104;-44
2023/05/04 01:40:29;;;;;;;6.83;4.67;;;11.70;61.00;;;14.59;43.08;98045.88;5026754;28;20380;-44
2023/05/04 01:42:56;;;;;;;5.77;4.83;;;11.70;61.20;;;14.59;43.27;98044.00;5030418;28;20054;-44
2023/05/04 01:45:24;;;;;;;6.83;4.60;;;11.70;61.20;;;14.59;43.05;98043.19;5013353;28;20053;-45
2023/05/04 01:47:51;;;;;;;7.50;6.20;;;11.70;61.20;;;14.58;43.04;98039.69;5030313;28;20052;-43
2023/05/04 01:50:19;;;;;;;7.77;4.93;;;11.70;61.40;;;14.55;43.08;98043.50;5029475;28;20038;-45
2023/05/04 01:52:46;;;;;;;8.47;5.10;;;11.60;61.30;;;14.53;43.31;98040.16;5029196;28;20049;-44
2023/05/04 01:55:14;;;;;;;8.37;5.27;;;11.60;61.50;;;14.48;43.31;98039.88;5030507;28;20497;-44
2023/05/04 01:57:42;;;;;;;6.63;5.47;;;11.50;61.80;;;14.46;43.38;98041.03;5028767;28;20048;-45
2023/05/04 02:00:10;;;;;;;7.63;5.83;;;11.50;61.80;;;14.44;43.34;98043.06;5029044;28;20038;-45
2023/05/04 02:02:44;;;;;;;7.77;5.60;;;11.50;62.10;;;14.41;43.50;98044.25;5029064;28;20050;-44
2023/05/04 02:05:17;;;;;;;7.57;5.37;;;11.40;62.20;;;14.39;43.55;98040.94;5029135;28;20394;-45
2023/05/04 02:07:44;;;;;;;7.27;5.30;;;11.40;62.30;;;14.33;43.60;98042.47;5028824;28;20045;-46
2023/05/04 02:10:12;;;;;;;7.30;5.07;;;11.30;62.50;;;14.31;43.53;98036.44;5028862;28;20053;-43
2023/05/04 02:12:41;;;;;;;7.67;5.80;;;11.30;62.80;;;14.27;43.83;98029.78;5029250;28;20054;-44
2023/05/04 02:15:10;;;;;;;12.33;5.80;;;11.30;63.10;;;14.24;43.81;98035.47;5022538;28;20408;-43
2023/05/04 02:17:38;;;;;;;8.83;5.60;;;11.30;63.00;;;14.18;43.90;98034.31;5029186;28;20105;-45
2023/05/04 02:20:08;;;;;;;8.77;5.03;;;11.20;63.00;;;14.13;43.91;98039.38;5028904;28;20037;-46
2023/05/04 02:22:35;;;;;;;9.50;5.87;;;11.20;63.30;;;14.09;44.12;98026.50;5029027;28;20049;-43
2023/05/04 02:25:04;;;;;;;7.90;5.90;;;11.10;63.50;;;14.05;44.33;98033.22;5028794;28;20057;-45
2023/05/04 02:27:31;;;;;;;8.07;5.77;;;11.10;63.80;;;14.04;44.36;98028.88;5030049;28;20049;-43
2023/05/04 02:29:59;;;;;;;13.10;6.10;;;11.10;64.20;;;14.01;44.24;98030.06;5030126;28;20057;-44
2023/05/04 02:32:27;;;;;;;7.87;5.43;;;11.00;64.10;;;13.98;44.25;98031.25;5028743;28;20505;-43
2023/05/04 02:34:54;;;;;;;7.67;5.30;;;11.00;64.20;;;13.95;44.34;98041.47;5028616;28;20435;-45
2023/05/04 02:37:22;;;;;;;9.00;6.40;;;10.90;64.30;;;13.90;44.58;98031.28;5028839;28;20042;-45
2023/05/04 02:39:50;;;;;;;9.23;6.63;;;10.90;64.70;;;13.88;44.53;98033.28;5030482;28;20042;-44
2023/05/04 02:42:18;;;;;;;8.67;6.67;;;10.90;64.80;;;13.90;44.54;98025.06;5030615;28;20033;-44
2023/05/04 02:44:46;;;;;;;8.63;6.23;;;10.90;64.90;;;13.88;44.72;98033.28;5029359;28;20042;-46
2023/05/04 02:47:13;;;;;;;8.30;6.47;;;10.90;64.90;;;13.86;44.67;98031.78;5032931;28;20124;-46
2023/05/04 02:49:41;;;;;;;10.90;6.40;;;10.90;64.90;;;13.83;44.75;98024.13;5032786;28;20425;-45
2023/05/04 02:52:09;;;;;;;9.33;6.80;;;10.90;64.80;;;13.82;44.95;98027.78;5032666;28;20037;-44
2023/05/04 02:54:37;;;;;;;10.00;6.77;;;11.00;64.90;;;13.81;45.05;98032.31;5032823;28;20052;-43
2023/05/04 02:57:05;;;;;;;9.87;6.10;;;11.00;64.80;;;13.83;45.07;98035.63;5032124;28;20045;-45
2023/05/04 02:59:33;;;;;;;10.47;6.37;;;11.00;65.00;;;13.83;44.97;98029.47;5033435;28;20054;-44
2023/05/04 03:02:01;;;;;;;10.77;7.07;;;11.00;65.10;;;13.82;44.99;98033.97;5031926;28;20061;-43
2023/05/04 03:04:29;;;;;;;9.90;5.87;;;10.90;65.40;;;13.82;45.03;98031.28;5033076;28;20390;-44
2023/05/04 03:06:56;;;;;;;10.03;6.87;;;11.00;65.20;;;13.78;44.99;98032.63;5031792;28;20049;-44
2023/05/04 03:09:24;;;;;;;7.90;5.93;;;10.80;65.30;;;13.74;45.15;98037.50;5031941;28;20037;-43
2023/05/04 03:11:52;;;;;;;10.77;6.53;;;10.80;66.00;;;13.71;45.27;98035.19;5015165;28;20053;-45
2023/05/04 03:14:19;;;;;;;7.47;5.57;;;10.80;65.80;;;13.66;45.21;98037.53;5031639;28;20048;-46
2023/05/04 03:16:47;;;;;;;10.70;6.03;;;10.70;66.10;;;13.63;45.32;98037.03;5031503;28;20054;-43
2023/05/04 03:19:17;;;;;;;9.00;6.73;;;10.60;66.40;;;13.59;45.21;98036.56;5033140;28;20056;-44
2023/05/04 03:21:45;;;;;;;9.37;6.13;;;10.50;66.80;;;13.56;45.17;98036.88;5031521;28;20148;-44
2023/05/04 03:24:17;;;;;;;9.20;6.67;;;10.50;67.10;;;13.50;45.44;98033.06;5025242;28;20040;-44
2023/05/04 03:26:45;;;;;;;9.13;6.23;;;10.40;67.30;;;13.46;45.45;98034.41;5031489;28;20050;-44
2023/05/04 03:29:13;;;;;;;8.93;6.33;;;10.40;67.40;;;13.42;45.45;98024.22;5024267;28;20044;-44
2023/05/04 03:31:41;;;;;;;9.20;7.10;;;10.40;67.30;;;13.38;45.53;98023.72;5031539;28;20504;-43
2023/05/04 03:34:13;;;;;;;10.20;6.77;;;10.30;67.40;;;13.35;45.67;98024.88;5031402;28;20053;-45
2023/05/04 03:36:41;;;;;;;9.03;5.67;;;10.30;67.60;;;13.32;45.64;98017.22;5031176;28;20072;-44
2023/05/04 03:39:08;;;;;;;11.60;6.50;;;10.30;67.70;;;13.28;45.67;98021.19;5031117;28;20056;-44
2023/05/04 03:41:36;;;;;;;10.73;6.87;;;10.30;67.90;;;13.26;45.88;98017.88;5031739;28;20068;-46
2023/05/04 03:44:03;;;;;;;8.97;6.47;;;10.30;68.00;;;13.26;45.93;98017.88;5032629;28;20045;-45
2023/05/04 03:46:31;;;;;;;11.93;6.90;;;10.30;68.20;;;13.25;46.29;98013.50;5031240;28;20064;-43
2023/05/04 03:48:59;;;;;;;9.73;7.37;;;10.30;68.30;;;13.26;46.44;98017.00;5030888;28;20064;-45
2023/05/04 03:51:27;;;;;;;9.50;7.23;;;10.30;68.50;;;13.22;46.18;98016.50;5031757;28;20037;-46
2023/05/04 03:53:55;;;;;;;9.23;7.57;;;10.20;68.40;;;13.20;46.28;98016.69;5031219;28;20048;-44
2023/05/04 03:56:22;;;;;;;11.20;8.50;;;10.20;68.70;;;13.19;46.46;98020.34;5030673;28;20052;-44
2023/05/04 03:58:50;;;;;;;20.27;7.57;;;10.20;68.70;;;13.16;46.44;98012.69;5030931;28;20052;-47
2023/05/04 04:01:21;;;;;;;11.53;7.73;;;10.20;68.90;;;13.16;46.73;98020.72;5031610;28;20041;-46
2023/05/04 04:03:49;;;;;;;11.97;8.40;;;10.20;69.10;;;13.14;46.63;98017.38;5032192;28;20056;-44
2023/05/04 04:06:19;;;;;;;13.83;8.23;;;10.10;69.40;;;13.13;46.51;98012.19;5030765;28;20581;-44
2023/05/04 04:08:46;;;;;;;13.57;8.77;;;10.10;69.40;;;13.11;46.67;98007.00;5030689;28;20060;-45
2023/05/04 04:11:14;;;;;;;10.97;8.20;;;10.10;69.90;;;13.11;46.92;98006.19;5032141;28;20060;-49
2023/05/04 04:13:42;;;;;;;11.37;8.03;;;10.10;70.20;;;13.11;46.98;98011.53;5032134;28;20520;-44
2023/05/04 04:16:09;;;;;;;12.50;8.23;;;10.10;70.20;;;13.13;47.17;98001.50;5030463;28;20049;-45
2023/05/04 04:18:38;;;;;;;10.33;7.87;;;10.20;70.30;;;13.15;47.11;98000.31;5031919;28;20497;-44
2023/05/04 04:21:05;;;;;;;11.57;7.57;;;10.20;70.40;;;13.20;47.01;98003.34;5031404;28;20049;-44
2023/05/04 04:23:33;;;;;;;10.57;8.00;;;10.20;70.10;;;13.21;47.09;98004.16;5031956;28;20041;-45
2023/05/04 04:26:00;;;;;;;11.03;8.37;;;10.30;70.40;;;13.23;47.18;98004.00;5030505;28;20045;-44
2023/05/04 04:28:28;;;;;;;12.33;8.07;;;10.30;70.40;;;13.26;47.32;97999.16;5031580;28;20045;-45
2023/05/04 04:30:55;;;;;;;12.43;7.63;;;10.40;70.20;;;13.30;47.41;97997.84;5031536;28;20037;-45
2023/05/04 04:33:23;;;;;;;10.73;7.53;;;10.40;70.30;;;13.34;47.25;97992.97;5031610;28;20044;-45
2023/05/04 04:35:51;;;;;;;11.07;7.30;;;10.50;70.30;;;13.39;47.37;97995.97;5031689;28;20520;-48
2023/05/04 04:38:20;;;;;;;10.87;7.30;;;10.50;71.20;;;13.43;47.13;97991.13;5031631;28;20052;-44
2023/05/04 04:40:47;;;;;;;11.47;7.67;;;10.50;70.40;;;13.42;47.39;97998.31;5029473;28;20497;-46
2023/05/04 04:43:15;;;;;;;12.27;7.97;;;10.50;70.60;;;13.47;47.42;97997.78;5030626;28;20049;-46
2023/05/04 04:45:44;;;;;;;10.40;7.63;;;10.50;70.60;;;13.50;47.34;97997.44;5031274;28;20045;-43
2023/05/04 04:48:11;;;;;;;14.13;8.53;;;10.60;70.40;;;13.53;47.22;97995.28;5031107;28;20049;-43
2023/05/04 04:50:39;;;;;;;10.20;7.67;;;10.60;70.30;;;13.57;47.27;97993.06;5031541;28;20037;-46
2023/05/04 04:53:06;;;;;;;10.00;7.50;;;10.70;70.00;;;13.60;47.33;97992.75;5031564;28;20519;-45
2023/05/04 04:55:34;;;;;;;10.40;7.10;;;10.80;69.70;;;13.66;47.40;98000.06;5031212;28;20046;-44
2023/05/04 04:58:02;;;;;;;9.93;8.03;;;10.80;69.60;;;13.69;47.29;97991.72;5031117;28;20056;-44
2023/05/04 05:00:29;;;;;;;11.67;7.87;;;10.90;69.40;;;13.71;47.34;97997.72;5031247;28;20060;-45
2023/05/04 05:02:57;;;;;;;11.03;7.50;;;10.90;69.60;;;13.74;47.32;97988.50;5031196;28;20068;-44
2023/05/04 05:05:25;;;;;;;10.17;7.67;;;10.90;69.50;;;13.76;47.15;97987.34;5030823;28;20052;-45
2023/05/04 05:07:52;;;;;;;9.07;7.43;;;11.00;69.20;;;13.79;47.20;97995.00;5030660;28;20049;-43
2023/05/04 05:10:20;;;;;;;10.73;7.80;;;11.10;68.80;;;13.84;47.20;97999.88;5031063;28;20412;-44
2023/05/04 05:12:52;;;;;;;11.60;7.30;;;11.10;68.40;;;13.87;47.37;97996.81;5030669;28;20045;-43
2023/05/04 05:15:19;;;;;;;12.60;7.17;;;11.20;68.40;;;13.95;47.15;97998.63;5031548;28;20037;-43
2023/05/04 05:17:47;;;;;;;14.87;9.30;;;11.20;68.40;;;14.00;47.00;98001.63;5030806;28;20076;-45
2023/05/04 05:20:14;;;;;;;11.47;8.17;;;11.30;68.40;;;14.05;46.93;98001.91;5030744;28;20042;-43
2023/05/04 05:22:42;;;;;;;13.30;8.23;;;11.30;68.20;;;14.06;47.23;97995.56;5031025;28;20045;-44
2023/05/04 05:25:10;;;;;;;12.83;8.33;;;11.30;68.80;;;14.09;47.14;97994.38;5030743;28;20050;-44
2023/05/04 05:27:37;;;;;;;11.53;8.07;;;11.30;69.00;;;14.12;46.99;97997.53;5030803;28;20394;-45
2023/05/04 05:30:06;;;;;;;11.90;7.70;;;11.20;69.20;;;14.13;47.19;97995.69;5030516;28;20041;-44
2023/05/04 05:32:34;;;;;;;13.63;8.50;;;11.20;69.50;;;14.16;47.49;98006.06;5030917;28;20042;-45
2023/05/04 05:35:06;;;;;;;13.20;7.70;;;11.30;69.90;;;14.17;47.31;98003.22;5030640;28;20375;-45
2023/05/04 05:37:33;;;;;;;11.03;8.10;;;11.30;69.90;;;14.18;47.38;98007.53;5030592;28;20045;-46
2023/05/04 05:40:01;;;;;;;11.30;8.17;;;11.30;70.00;;;14.19;47.42;98005.72;5030838;28;20056;-44
2023/05/04 05:42:29;;;;;;;12.27;8.00;;;11.40;70.00;;;14.18;47.83;98009.41;5030635;28;20512;-47
2023/05/04 05:44:57;;;;;;;10.87;7.37;;;11.40;69.90;;;14.20;47.75;98004.69;5020169;28;20049;-46
2023/05/04 05:47:24;;;;;;;10.87;7.63;;;11.40;70.20;;;14.25;47.76;98004.16;5029343;28;20050;-44
2023/05/04 05:49:53;;;;;;;10.43;7.40;;;11.40;70.30;;;14.27;47.63;98013.72;5030659;28;20045;-45
2023/05/04 05:52:20;;;;;;;14.90;9.43;;;11.40;70.70;;;14.30;47.71;98015.19;5030729;28;20050;-48
2023/05/04 05:54:48;;;;;;;9.90;7.43;;;11.40;71.00;;;14.32;47.71;98011.31;5030530;28;20052;-44
2023/05/04 05:57:15;;;;;;;13.57;7.93;;;11.50;71.10;;;14.34;47.74;98008.47;5030598;28;20049;-44
2023/05/04 05:59:43;;;;;;;12.37;8.23;;;11.50;71.10;;;14.36;47.73;98017.16;5030783;28;20398;-44
2023/05/04 06:02:13;;;;;;;12.83;8.87;;;11.50;71.10;;;14.37;47.76;98006.28;5030644;28;20049;-44
2023/05/04 06:04:43;;;;;;;9.40;7.77;;;11.40;71.50;;;14.41;48.04;98011.28;5030445;28;20094;-45
2023/05/04 06:07:12;;;;;;;12.37;7.97;;;11.50;71.70;;;14.43;48.12;98012.78;5030035;28;20527;-46
2023/05/04 06:09:40;;;;;;;11.63;8.73;;;11.50;72.00;;;14.46;48.13;98008.91;5030619;28;20050;-44
2023/05/04 06:12:12;;;;;;;11.30;7.63;;;11.60;72.10;;;14.46;48.31;98001.72;5030401;28;20041;-45
2023/05/04 06:14:40;;;;;;;13.23;9.60;;;11.60;72.30;;;14.52;48.30;98014.41;5030988;28;20045;-44
2023/05/04 06:17:07;;;;;;;12.82;8.00;;;11.70;72.50;;;14.55;48.23;98007.84;5030250;28;20072;-45
2023/05/04 06:19:38;;;;;;;11.37;8.73;;;11.70;72.70;;;14.58;48.39;98007.53;5031182;28;20052;-44
2023/05/04 06:22:06;;;;;;;10.30;9.00;;;11.70;72.70;;;14.63;48.40;97999.78;5034430;28;20045;-44
2023/05/04 06:24:34;;;;;;;12.07;9.50;;;11.80;72.40;;;14.70;48.42;98002.59;5034112;28;20045;-44
2023/05/04 06:27:02;;;;;;;12.63;9.00;;;11.90;72.10;;;14.73;48.21;98000.41;5033863;28;20053;-45
2023/05/04 06:29:29;;;;;;;15.70;8.97;;;12.00;71.80;;;14.76;48.07;98001.88;5034279;28;20056;-45
2023/05/04 06:31:58;;;;;;;17.73;9.10;;;12.00;71.40;;;14.82;47.95;98003.81;5034055;28;20049;-43
2023/05/04 06:34:25;;;;;;;14.33;9.03;;;12.00;71.20;;;14.84;48.06;98000.97;5041694;28;20523;-45
2023/05/04 06:36:53;;;;;;;12.82;9.10;;;12.10;70.80;;;14.88;48.13;98003.09;5032924;28;20054;-45
2023/05/04 06:39:21;;;;;;;12.27;8.83;;;12.20;71.00;;;14.92;48.01;98004.41;5033949;28;20045;-46
2023/05/04 06:41:52;;;;;;;13.33;9.57;;;12.20;70.70;;;15.00;47.86;98006.19;5034374;28;20050;-47
2023/05/04 06:44:20;;;;;;;12.25;9.05;;;12.30;70.50;;;15.02;47.86;97993.44;5031959;28;20421;-46
2023/05/04 06:46:48;;;;;;;14.67;9.90;;;12.30;70.20;;;15.08;47.79;98002.59;5033536;28;20045;-43
2023/05/04 06:49:16;;;;;;;11.27;9.07;;;12.40;70.10;;;15.10;48.04;98004.13;5033906;28;20413;-44
2023/05/04 06:51:44;;;;;;;10.83;9.07;;;12.40;70.50;;;15.16;47.99;98013.28;5033776;28;20050;-46
2023/05/04 06:54:12;;;;;;;13.50;10.25;;;12.40;70.50;;;15.19;48.06;98004.84;5033753;28;20033;-45
2023/05/04 06:56:39;;;;;;;17.63;10.82;;;12.50;70.60;;;15.24;48.08;98007.84;5033403;28;20057;-46
2023/05/04 06:59:08;;;;;;;13.87;9.70;;;12.50;70.50;;;15.29;48.04;98001.91;5033547;28;20037;-45
2023/05/04 07:01:36;;;;;;;18.15;10.98;;;12.60;70.30;;;15.35;48.02;98009.22;5033814;28;20053;-47
2023/05/04 07:04:04;;;;;;;13.23;10.13;;;12.70;70.20;;;15.41;47.88;98011.19;5032335;28;20053;-44
2023/05/04 07:06:32;;;;;;;15.32;10.10;;;12.80;70.00;;;15.49;47.89;98008.44;5032205;28;20049;-45
2023/05/04 07:09:00;;;;;;;12.07;8.98;;;12.80;69.70;;;15.54;47.82;98003.31;5033192;28;20434;-45
2023/05/04 07:11:27;;;;;;;15.75;9.55;;;12.90;69.80;;;15.61;47.60;98000.75;5032376;28;20520;-44
2023/05/04 07:13:55;;;;;;;13.85;9.32;;;12.90;69.70;;;15.68;47.47;98001.69;5033272;28;20468;-45
2023/05/04 07:16:23;;;;;;;13.40;10.15;;;13.00;69.40;;;15.73;47.28;97998.47;5032978;28;20041;-46
2023/05/04 07:18:50;;;;;;;13.93;9.98;;;13.00;68.90;;;15.80;47.10;98001.22;5033091;28;20057;-45
2023/05/04 07:21:18;;;;;;;13.30;9.75;;;13.10;68.80;;;15.86;47.35;98001.34;5032238;28;20076;-45
2023/05/04 07:23:48;;;;;;;13.00;9.20;;;13.20;68.70;;;15.93;47.16;98004.91;5032243;28;20501;-45
2023/05/04 07:26:16;;;;;;;14.52;10.25;;;13.30;68.60;;;15.99;47.31;98003.34;5031199;28;20053;-44
2023/05/04 07:28:43;;;;;;;12.38;10.23;;;13.30;68.40;;;16.05;47.00;98004.44;5033012;28;20056;-47
2023/05/04 07:31:13;;;;;;;14.80;10.13;;;13.40;68.40;;;16.07;47.29;98014.00;5032400;28;20528;-46
2023/05/04 07:33:41;;;;;;;12.88;10.10;;;13.50;68.50;;;16.16;47.45;98003.16;5033434;28;20052;-44
2023/05/04 07:36:09;;;;;;;12.00;10.13;;;13.50;69.30;;;16.21;46.89;98012.31;5032823;28;20048;-45
2023/05/04 07:38:36;;;;;;;16.65;9.82;;;13.60;67.90;;;16.26;47.00;98001.00;5032892;28;20507;-46
2023/05/04 07:41:04;;;;;;;13.77;10.30;;;13.60;67.70;;;16.30;46.91;97996.91;5028721;28;20424;-45
2023/05/04 07:43:31;;;;;;;16.85;10.30;;;13.70;67.70;;;16.38;46.84;98001.34;5032104;28;20053;-44
2023/05/04 07:46:00;;;;;;;13.07;9.73;;;13.80;67.40;;;16.42;46.75;98000.78;5031351;28;20045;-45
2023/05/04 07:48:28;;;;;;;12.40;9.45;;;13.80;67.10;;;16.47;46.62;98001.03;5032734;28;20044;-46
2023/05/04 07:50:55;;;;;;;13.05;9.38;;;13.90;66.90;;;16.50;46.70;98003.34;5032575;28;20049;-45
2023/05/04 07:53:25;;;;;;;12.70;9.43;;;13.90;66.80;;;16.58;46.59;98005.09;5032608;28;20046;-46
2023/05/04 07:55:56;;;;;;;14.10;10.05;;;14.00;66.70;;;16.66;46.82;97990.69;5031478;28;20049;-45
2023/05/04 07:58:23;;;;;;;13.68;9.73;;;14.10;66.90;;;16.72;46.09;97989.91;5032318;28;20052;-45
2023/05/04 08:00:51;;;;;;;16.92;10.65;;;14.10;66.60;;;16.77;46.12;97987.50;5032549;28;20052;-49
2023/05/04 08:03:19;;;;;;;13.85;9.90;;;14.20;66.20;;;16.83;46.35;97994.81;5032534;28;20442;-45
2023/05/04 08:05:46;;;;;;;10.65;8.90;;;14.20;66.10;;;16.86;46.25;97988.22;5031892;28;20045;-46
2023/05/04 08:08:14;;;;;;;12.10;9.63;;;14.30;66.00;;;16.90;46.22;97984.09;5032243;28;20045;-46
2023/05/04 08:10:42;;;;;;;14.15;9.60;;;14.30;66.10;;;16.97;46.16;97986.88;5032468;28;20397;-45
2023/05/04 08:13:10;;;;;;;10.77;8.65;;;14.40;66.00;;;17.01;45.82;97977.38;5032108;28;20052;-44
2023/05/04 08:15:38;;;;;;;12.27;9.32;;;14.40;65.50;;;17.06;46.09;97983.00;5032795;28;20048;-45
2023/05/04 08:18:05;;;;;;;12.15;8.68;;;14.50;65.60;;;17.11;46.22;97978.69;5031748;28;20421;-45
2023/05/04 08:20:33;;;;;;;11.80;8.98;;;14.60;65.70;;;17.18;45.80;97970.69;5032432;28;20042;-45
2023/05/04 08:23:02;;;;;;;13.27;9.70;;;14.60;65.40;;;17.23;45.91;97976.31;5032242;28;20096;-45
2023/05/04 08:25:30;;;;;;;11.85;9.13;;;14.60;65.40;;;17.29;45.87;97972.00;5023922;28;20041;-46
2023/05/04 08:27:57;;;;;;;12.05;8.95;;;14.80;65.20;;;17.35;45.86;97970.38;5031887;28;20061;-46
2023/05/04 08:30:25;;;;;;;10.25;8.43;;;14.90;65.00;;;17.41;45.55;97969.59;5032160;28;20421;-44
2023/05/04 08:32:54;;;;;;;13.13;8.45;;;14.90;64.20;;;17.46;45.18;97961.78;5031918;28;20048;-45
2023/05/04 08:35:26;;;;;;;12.43;9.85;;;15.00;63.70;;;17.55;45.33;97967.84;5031118;28;20049;-47
2023/05/04 08:37:54;;;;;;;10.32;8.68;;;15.00;63.90;;;17.61;45.35;97961.66;5032285;28;20048;-45
2023/05/04 08:40:22;;;;;;;11.73;9.38;;;15.10;64.10;;;17.67;45.24;97968.94;5031834;28;20049;-43
2023/05/04 08:42:51;;;;;;;11.40;8.90;;;15.20;64.10;;;17.71;44.95;97962.94;5031016;28;20046;-44
2023/05/04 08:45:18;;;;;;;10.30;8.50;;;15.20;63.40;;;17.77;44.42;97965.88;5029352;28;20493;-44
2023/05/04 08:47:46;;;;;;;10.77;7.93;;;15.30;62.20;;;17.82;44.06;97964.25;5030386;28;20056;-45
2023/05/04 08:50:14;;;;;;;9.88;8.07;;;15.40;61.80;;;17.92;44.39;97963.09;5031658;28;20057;-45
2023/05/04 08:52:47;;;;;;;8.27;7.20;;;15.50;61.90;;;17.99;44.08;97959.41;5031592;28;20049;-45
2023/05/04 08:55:16;;;;;;;;;;;15.50;61.30;;;18.20;44.01;97958.41;5031711;28;20041;-45
2023/05/04 08:57:45;;;;;;;9.63;7.50;;;15.60;59.80;;;18.25;43.59;97955.97;5031450;28;19921;-47
2023/05/04 09:00:16;;;;;;;9.50;7.47;;;15.70;61.10;;;18.26;43.67;97956.78;5030139;28;20080;-45
2023/05/04 09:02:45;;;;;;;11.80;7.47;;;15.70;60.70;;;18.30;43.44;97955.38;5030282;28;20045;-46
2023/05/04 09:05:14;;;;;;;8.07;7.15;;;15.80;60.40;;;18.36;43.48;97953.69;5030073;28;20515;-46
2023/05/04 09:07:41;;;;;;;10.98;8.13;;;15.90;60.30;;;18.41;43.23;97951.22;5031147;28;20049;-47
2023/05/04 09:10:10;;;;;;;8.38;6.78;;;16.00;59.80;;;18.47;43.06;97956.63;5031240;28;20497;-46
2023/05/04 09:12:38;;;;;;;12.00;7.47;;;16.00;59.70;;;18.54;42.87;97948.56;5031135;28;20041;-46
2023/05/04 09:15:18;;;;;;;7.53;6.55;;;16.10;59.60;;;18.63;42.96;97943.78;5031290;28;20045;-45
2023/05/04 09:18:04;;;;;;;8.45;7.30;;;16.10;58.90;;;18.68;42.69;97936.75;5025047;28;20037;-46
2023/05/04 09:20:46;;;;;;;8.95;6.40;;;16.20;57.90;;;18.74;42.63;97935.09;5031229;28;20057;-47
2023/05/04 09:23:16;;;;;;;10.43;7.82;;;16.30;57.70;;;18.79;42.29;97938.03;5031133;28;20045;-46
2023/05/04 09:25:53;;;;;;;10.23;6.75;;;16.30;58.20;;;18.85;41.79;97936.41;5033791;28;20050;-45
2023/05/04 09:28:37;;;;;;;8.60;6.30;;;16.30;55.90;;;18.94;41.99;97931.59;5030009;28;20049;-47
2023/05/04 09:31:06;;;;;;;9.85;6.97;;;16.50;57.20;;;18.98;41.63;97933.69;5031321;28;20049;-49
2023/05/04 09:33:34;;;;;;;9.27;7.85;;;16.50;57.50;;;19.06;41.39;97921.88;5031039;28;20041;-46
2023/05/04 09:36:20;;;;;;;8.88;6.50;;;16.60;56.90;;;19.13;41.49;97919.97;5029670;28;20417;-49
2023/05/04 09:38:48;;;;;;;8.50;7.38;;;16.70;56.00;;;19.21;41.41;97922.47;5024869;28;20044;-44
2023/05/04 09:41:15;;;;;;;8.00;6.93;;;16.80;56.80;;;19.27;40.96;97924.34;5030931;28;20338;-45
2023/05/04 09:43:43;;;;;;;6.30;5.55;;;16.80;56.20;;;19.33;40.52;97925.38;5029378;28;20056;-44
2023/05/04 09:46:18;;;;;;;9.27;6.28;;;16.80;55.70;;;19.43;40.83;97922.22;5030426;28;20060;-45
2023/05/04 09:48:54;;;;;;;8.05;6.10;;;17.00;54.70;;;19.50;41.17;97919.50;5030692;28;20056;-45
2023/05/04 09:51:28;;;;;;;7.32;6.30;;;17.10;56.10;;;19.58;40.75;97908.47;5030934;28;20050;-45
2023/05/04 09:53:59;;;;;;;7.00;5.57;;;17.20;55.60;;;19.65;40.36;97915.50;5030830;28;20416;-45
2023/05/04 09:56:43;;;;;;;6.95;6.25;;;17.20;55.30;;;19.76;40.12;97919.47;5033119;28;20497;-45
2023/05/04 09:59:12;;;;;;;8.48;5.80;;;17.30;53.30;;;19.84;40.14;97919.22;5033492;28;20113;-45
2023/05/04 10:01:40;;;;;;;6.95;6.25;;;17.40;54.90;;;19.92;39.99;97920.84;5034970;28;20048;-44
2023/05/04 10:04:11;;;;;;;6.22;5.28;;;17.50;54.80;;;20.00;38.64;97917.88;5033686;28;20421;-47
2023/05/04 10:06:42;;;;;;;6.90;4.47;;;17.60;52.90;;;20.05;38.28;97911.84;5033461;28;20163;-46
2023/05/04 10:09:11;;;;;;;5.45;4.10;;;17.60;51.70;;;20.13;37.44;97914.31;5034255;28;20416;-45
2023/05/04 10:11:39;;;;;;;5.35;4.07;;;17.70;50.00;;;20.23;36.46;97908.44;5027157;28;20049;-45
2023/05/04 10:14:07;;;;;;;6.47;4.78;;;17.80;48.80;;;20.30;36.46;97903.81;5034454;28;20046;-50
2023/05/04 10:16:50;;;;;;;4.70;4.10;;;17.90;48.40;;;20.40;35.79;97900.63;5032913;28;20042;-47
2023/05/04 10:19:38;;;;;;;5.13;4.20;;;18.00;45.70;;;20.51;35.89;97897.25;5033509;28;20046;-47
2023/05/04 10:22:53;;;;;;;6.88;4.15;;;18.10;47.10;;;20.63;35.88;97895.50;5033583;28;20417;-49